sensor_id;sensor_type;location;lat;lon;timestamp;pressure;altitude;pressure_sealevel;temperature
73734;BMP280;62039;50.000;9.064;2023-07-30T00:01:05;99688.38;;;20.76
73734;BMP280;62039;50.000;9.064;2023-07-30T00:03:32;99698.47;;;20.74
73734;BMP280;62039;50.000;9.064;2023-07-30T00:05:59;99696.81;;;20.73
73734;BMP280;62039;50.000;9.064;2023-07-30T00:08:26;99695.19;;;20.72
73734;BMP280;62039;50.000;9.064;2023-07-30T00:10:53;99698.91;;;20.71
73734;BMP280;62039;50.000;9.064;2023-07-30T00:13:20;99698.31;;;20.69
73734;BMP280;62039;50.000;9.064;2023-07-30T00:15:49;99695.13;;;20.67
73734;BMP280;62039;50.000;9.064;2023-07-30T00:18:17;99695.94;;;20.68
73734;BMP280;62039;50.000;9.064;2023-07-30T00:20:44;99693.53;;;20.66
73734;BMP280;62039;50.000;9.064;2023-07-30T00:23:11;99702.53;;;20.65
73734;BMP280;62039;50.000;9.064;2023-07-30T00:25:38;99695.59;;;20.64
73734;BMP280;62039;50.000;9.064;2023-07-30T00:28:05;99695.84;;;20.63
73734;BMP280;62039;50.000;9.064;2023-07-30T00:30:32;99701.41;;;20.61
73734;BMP280;62039;50.000;9.064;2023-07-30T00:33:01;99697.69;;;20.62
73734;BMP280;62039;50.000;9.064;2023-07-30T00:35:28;99698.19;;;20.59
73734;BMP280;62039;50.000;9.064;2023-07-30T00:37:55;99696.34;;;20.60
73734;BMP280;62039;50.000;9.064;2023-07-30T00:40:22;99685.97;;;20.58
73734;BMP280;62039;50.000;9.064;2023-07-30T00:42:49;99698.41;;;20.58
73734;BMP280;62039;50.000;9.064;2023-07-30T00:45:16;99697.63;;;20.57
73734;BMP280;62039;50.000;9.064;2023-07-30T00:47:43;99702.91;;;20.57
73734;BMP280;62039;50.000;9.064;2023-07-30T00:50:14;99700.50;;;20.56
73734;BMP280;62039;50.000;9.064;2023-07-30T00:52:42;99712.19;;;20.55
73734;BMP280;62039;50.000;9.064;2023-07-30T00:55:10;99710.56;;;20.54
73734;BMP280;62039;50.000;9.064;2023-07-30T00:57:38;99711.84;;;20.51
73734;BMP280;62039;50.000;9.064;2023-07-30T01:00:07;99718.19;;;20.50
73734;BMP280;62039;50.000;9.064;2023-07-30T01:02:35;99727.19;;;20.49
73734;BMP280;62039;50.000;9.064;2023-07-30T01:05:02;99737.25;;;20.47
73734;BMP280;62039;50.000;9.064;2023-07-30T01:07:32;99736.44;;;20.47
73734;BMP280;62039;50.000;9.064;2023-07-30T01:10:00;99741.41;;;20.43
73734;BMP280;62039;50.000;9.064;2023-07-30T01:12:29;99745.91;;;20.43
73734;BMP280;62039;50.000;9.064;2023-07-30T01:14:57;99748.81;;;20.41
73734;BMP280;62039;50.000;9.064;2023-07-30T01:17:25;99756.19;;;20.39
73734;BMP280;62039;50.000;9.064;2023-07-30T01:19:53;99754.59;;;20.38
73734;BMP280;62039;50.000;9.064;2023-07-30T01:22:22;99757.22;;;20.38
73734;BMP280;62039;50.000;9.064;2023-07-30T01:24:50;99756.66;;;20.36
73734;BMP280;62039;50.000;9.064;2023-07-30T01:27:24;99757.72;;;20.35
73734;BMP280;62039;50.000;9.064;2023-07-30T01:29:55;99769.38;;;20.34
73734;BMP280;62039;50.000;9.064;2023-07-30T01:32:26;99760.84;;;20.32
73734;BMP280;62039;50.000;9.064;2023-07-30T01:34:55;99764.53;;;20.31
73734;BMP280;62039;50.000;9.064;2023-07-30T01:37:25;99772.47;;;20.31
73734;BMP280;62039;50.000;9.064;2023-07-30T01:39:53;99770.31;;;20.28
73734;BMP280;62039;50.000;9.064;2023-07-30T01:42:20;99767.66;;;20.28
73734;BMP280;62039;50.000;9.064;2023-07-30T01:44:47;99783.00;;;20.26
73734;BMP280;62039;50.000;9.064;2023-07-30T01:47:14;99775.06;;;20.26
73734;BMP280;62039;50.000;9.064;2023-07-30T01:49:41;99777.13;;;20.24
73734;BMP280;62039;50.000;9.064;2023-07-30T01:52:08;99787.72;;;20.24
73734;BMP280;62039;50.000;9.064;2023-07-30T01:54:38;99788.78;;;20.23
73734;BMP280;62039;50.000;9.064;2023-07-30T01:57:05;99782.66;;;20.22
73734;BMP280;62039;50.000;9.064;2023-07-30T01:59:32;99786.38;;;20.21
73734;BMP280;62039;50.000;9.064;2023-07-30T02:01:59;99783.72;;;20.21
73734;BMP280;62039;50.000;9.064;2023-07-30T02:04:26;99788.22;;;20.21
73734;BMP280;62039;50.000;9.064;2023-07-30T02:06:53;99789.25;;;20.20
73734;BMP280;62039;50.000;9.064;2023-07-30T02:09:20;99786.03;;;20.18
73734;BMP280;62039;50.000;9.064;2023-07-30T02:11:49;99787.41;;;20.20
73734;BMP280;62039;50.000;9.064;2023-07-30T02:14:17;99787.66;;;20.19
73734;BMP280;62039;50.000;9.064;2023-07-30T02:16:44;99795.81;;;20.17
73734;BMP280;62039;50.000;9.064;2023-07-30T02:19:11;99794.47;;;20.15
73734;BMP280;62039;50.000;9.064;2023-07-30T02:21:38;99800.78;;;20.14
73734;BMP280;62039;50.000;9.064;2023-07-30T02:24:05;99794.91;;;20.12
73734;BMP280;62039;50.000;9.064;2023-07-30T02:26:32;99801.22;;;20.11
73734;BMP280;62039;50.000;9.064;2023-07-30T02:29:02;99802.28;;;20.10
73734;BMP280;62039;50.000;9.064;2023-07-30T02:31:29;99799.06;;;20.08
73734;BMP280;62039;50.000;9.064;2023-07-30T02:33:56;99805.94;;;20.09
73734;BMP280;62039;50.000;9.064;2023-07-30T02:36:23;99800.09;;;20.07
73734;BMP280;62039;50.000;9.064;2023-07-30T02:38:50;99801.13;;;20.06
73734;BMP280;62039;50.000;9.064;2023-07-30T02:41:17;99805.84;;;20.04
73734;BMP280;62039;50.000;9.064;2023-07-30T02:43:44;99800.56;;;20.04
73734;BMP280;62039;50.000;9.064;2023-07-30T02:46:14;99806.91;;;20.03
73734;BMP280;62039;50.000;9.064;2023-07-30T02:48:41;99798.41;;;20.01
73734;BMP280;62039;50.000;9.064;2023-07-30T02:51:08;99807.16;;;20.01
73734;BMP280;62039;50.000;9.064;2023-07-30T02:53:35;99813.50;;;20.00
73734;BMP280;62039;50.000;9.064;2023-07-30T02:56:02;99821.44;;;20.00
73734;BMP280;62039;50.000;9.064;2023-07-30T02:58:29;99818.22;;;19.98
73734;BMP280;62039;50.000;9.064;2023-07-30T03:01:05;99829.03;;;19.96
73734;BMP280;62039;50.000;9.064;2023-07-30T03:03:34;99837.00;;;19.96
73734;BMP280;62039;50.000;9.064;2023-07-30T03:06:02;99835.63;;;19.94
73734;BMP280;62039;50.000;9.064;2023-07-30T03:08:29;99827.91;;;19.92
73734;BMP280;62039;50.000;9.064;2023-07-30T03:10:57;99841.16;;;19.92
73734;BMP280;62039;50.000;9.064;2023-07-30T03:13:24;99844.84;;;19.91
73734;BMP280;62039;50.000;9.064;2023-07-30T03:15:51;99848.53;;;19.90
73734;BMP280;62039;50.000;9.064;2023-07-30T03:18:18;99841.59;;;19.89
73734;BMP280;62039;50.000;9.064;2023-07-30T03:20:48;99846.09;;;19.89
73734;BMP280;62039;50.000;9.064;2023-07-30T03:23:15;99855.13;;;19.88
73734;BMP280;62039;50.000;9.064;2023-07-30T03:25:42;99849.00;;;19.87
73734;BMP280;62039;50.000;9.064;2023-07-30T03:28:09;99858.00;;;19.86
73734;BMP280;62039;50.000;9.064;2023-07-30T03:30:36;99862.47;;;19.86
73734;BMP280;62039;50.000;9.064;2023-07-30T03:33:03;99865.38;;;19.84
73734;BMP280;62039;50.000;9.064;2023-07-30T03:35:30;99858.44;;;19.83
73734;BMP280;62039;50.000;9.064;2023-07-30T03:37:59;99857.63;;;19.83
73734;BMP280;62039;50.000;9.064;2023-07-30T03:40:26;99857.91;;;19.81
73734;BMP280;62039;50.000;9.064;2023-07-30T03:42:54;99857.91;;;19.81
73734;BMP280;62039;50.000;9.064;2023-07-30T03:45:21;99852.00;;;19.79
73734;BMP280;62039;50.000;9.064;2023-07-30T03:47:48;99850.41;;;19.78
73734;BMP280;62039;50.000;9.064;2023-07-30T03:50:15;99849.59;;;19.78
73734;BMP280;62039;50.000;9.064;2023-07-30T03:52:42;99845.31;;;19.77
73734;BMP280;62039;50.000;9.064;2023-07-30T03:55:11;99850.84;;;19.75
73734;BMP280;62039;50.000;9.064;2023-07-30T03:57:38;99833.34;;;19.74
73734;BMP280;62039;50.000;9.064;2023-07-30T04:00:06;99838.06;;;19.72
73734;BMP280;62039;50.000;9.064;2023-07-30T04:02:33;99833.81;;;19.71
73734;BMP280;62039;50.000;9.064;2023-07-30T04:05:01;99839.34;;;19.70
73734;BMP280;62039;50.000;9.064;2023-07-30T04:07:27;99845.66;;;19.69
73734;BMP280;62039;50.000;9.064;2023-07-30T04:09:54;99838.53;;;19.69
73734;BMP280;62039;50.000;9.064;2023-07-30T04:12:24;99839.56;;;19.68
73734;BMP280;62039;50.000;9.064;2023-07-30T04:14:52;99847.75;;;19.67
73734;BMP280;62039;50.000;9.064;2023-07-30T04:17:20;99853.50;;;19.64
73734;BMP280;62039;50.000;9.064;2023-07-30T04:19:47;99850.06;;;19.63
73734;BMP280;62039;50.000;9.064;2023-07-30T04:22:14;99851.09;;;19.62
73734;BMP280;62039;50.000;9.064;2023-07-30T04:24:41;99857.44;;;19.61
73734;BMP280;62039;50.000;9.064;2023-07-30T04:27:08;99863.78;;;19.60
73734;BMP280;62039;50.000;9.064;2023-07-30T04:29:37;99864.81;;;19.59
73734;BMP280;62039;50.000;9.064;2023-07-30T04:32:06;99871.13;;;19.58
73734;BMP280;62039;50.000;9.064;2023-07-30T04:34:33;99869.50;;;19.57
73734;BMP280;62039;50.000;9.064;2023-07-30T04:37:00;99870.53;;;19.56
73734;BMP280;62039;50.000;9.064;2023-07-30T04:39:27;99868.94;;;19.55
73734;BMP280;62039;50.000;9.064;2023-07-30T04:41:54;99874.22;;;19.55
73734;BMP280;62039;50.000;9.064;2023-07-30T04:44:21;99875.84;;;19.56
73734;BMP280;62039;50.000;9.064;2023-07-30T04:46:50;99861.78;;;19.55
73734;BMP280;62039;50.000;9.064;2023-07-30T04:49:17;99867.09;;;19.55
73734;BMP280;62039;50.000;9.064;2023-07-30T04:51:44;99868.94;;;19.55
73734;BMP280;62039;50.000;9.064;2023-07-30T04:54:11;99876.88;;;19.55
73734;BMP280;62039;50.000;9.064;2023-07-30T04:56:38;99868.72;;;19.56
73734;BMP280;62039;50.000;9.064;2023-07-30T04:59:05;99875.84;;;19.56
73734;BMP280;62039;50.000;9.064;2023-07-30T05:01:32;99889.91;;;19.56
73734;BMP280;62039;50.000;9.064;2023-07-30T05:04:02;99883.56;;;19.57
73734;BMP280;62039;50.000;9.064;2023-07-30T05:06:29;99885.41;;;19.57
73734;BMP280;62039;50.000;9.064;2023-07-30T05:08:56;99891.53;;;19.57
73734;BMP280;62039;50.000;9.064;2023-07-30T05:11:23;99885.19;;;19.58
73734;BMP280;62039;50.000;9.064;2023-07-30T05:13:50;99884.16;;;19.59
73734;BMP280;62039;50.000;9.064;2023-07-30T05:16:17;99886.59;;;19.61
73734;BMP280;62039;50.000;9.064;2023-07-30T05:18:45;99885.31;;;19.64
73734;BMP280;62039;50.000;9.064;2023-07-30T05:21:14;99883.00;;;19.67
73734;BMP280;62039;50.000;9.064;2023-07-30T05:23:41;99887.03;;;19.70
73734;BMP280;62039;50.000;9.064;2023-07-30T05:26:08;99887.38;;;19.73
73734;BMP280;62039;50.000;9.064;2023-07-30T05:28:35;99893.00;;;19.77
73734;BMP280;62039;50.000;9.064;2023-07-30T05:31:02;99888.28;;;19.79
73734;BMP280;62039;50.000;9.064;2023-07-30T05:33:29;99885.16;;;19.82
73734;BMP280;62039;50.000;9.064;2023-07-30T05:35:56;99882.88;;;19.85
73734;BMP280;62039;50.000;9.064;2023-07-30T05:38:26;99878.72;;;19.89
73734;BMP280;62039;50.000;9.064;2023-07-30T05:40:53;99876.06;;;19.89
73734;BMP280;62039;50.000;9.064;2023-07-30T05:43:20;99872.16;;;19.92
73734;BMP280;62039;50.000;9.064;2023-07-30T05:45:47;99870.09;;;19.94
73734;BMP280;62039;50.000;9.064;2023-07-30T05:48:14;99872.47;;;19.95
73734;BMP280;62039;50.000;9.064;2023-07-30T05:50:41;99869.38;;;19.98
73734;BMP280;62039;50.000;9.064;2023-07-30T05:53:07;99871.81;;;20.00
73734;BMP280;62039;50.000;9.064;2023-07-30T05:55:37;99876.63;;;20.03
73734;BMP280;62039;50.000;9.064;2023-07-30T05:58:04;99867.63;;;20.04
73734;BMP280;62039;50.000;9.064;2023-07-30T06:00:31;99869.03;;;20.07
73734;BMP280;62039;50.000;9.064;2023-07-30T06:02:58;99865.34;;;20.08
73734;BMP280;62039;50.000;9.064;2023-07-30T06:05:25;99866.94;;;20.09
73734;BMP280;62039;50.000;9.064;2023-07-30T06:07:52;99858.75;;;20.10
73734;BMP280;62039;50.000;9.064;2023-07-30T06:10:19;99862.78;;;20.13
73734;BMP280;62039;50.000;9.064;2023-07-30T06:12:48;99866.81;;;20.15
73734;BMP280;62039;50.000;9.064;2023-07-30T06:15:15;99869.25;;;20.17
73734;BMP280;62039;50.000;9.064;2023-07-30T06:17:42;99865.09;;;20.21
73734;BMP280;62039;50.000;9.064;2023-07-30T06:20:10;99876.84;;;20.25
73734;BMP280;62039;50.000;9.064;2023-07-30T06:22:38;99877.19;;;20.28
73734;BMP280;62039;50.000;9.064;2023-07-30T06:25:05;99880.75;;;20.34
73734;BMP280;62039;50.000;9.064;2023-07-30T06:27:32;99872.88;;;20.39
73734;BMP280;62039;50.000;9.064;2023-07-30T06:30:02;99869.06;;;20.47
73734;BMP280;62039;50.000;9.064;2023-07-30T06:32:30;99868.91;;;20.53
73734;BMP280;62039;50.000;9.064;2023-07-30T06:34:57;99864.59;;;20.64
73734;BMP280;62039;50.000;9.064;2023-07-30T06:37:23;99867.69;;;20.72
73734;BMP280;62039;50.000;9.064;2023-07-30T06:39:50;99864.69;;;20.81
73734;BMP280;62039;50.000;9.064;2023-07-30T06:42:17;99864.03;;;20.90
73734;BMP280;62039;50.000;9.064;2023-07-30T06:44:44;99863.41;;;21.00
73734;BMP280;62039;50.000;9.064;2023-07-30T06:47:14;99867.59;;;21.12
73734;BMP280;62039;50.000;9.064;2023-07-30T06:49:41;99875.75;;;21.23
73734;BMP280;62039;50.000;9.064;2023-07-30T06:52:08;99880.19;;;21.34
73734;BMP280;62039;50.000;9.064;2023-07-30T06:54:35;99875.31;;;21.42
73734;BMP280;62039;50.000;9.064;2023-07-30T06:57:05;99867.47;;;21.52
73734;BMP280;62039;50.000;9.064;2023-07-30T06:59:33;99875.59;;;21.63
73734;BMP280;62039;50.000;9.064;2023-07-30T07:02:00;99873.56;;;21.70
73734;BMP280;62039;50.000;9.064;2023-07-30T07:04:30;99882.44;;;21.75
73734;BMP280;62039;50.000;9.064;2023-07-30T07:06:57;99879.25;;;21.78
73734;BMP280;62039;50.000;9.064;2023-07-30T07:09:24;99887.81;;;21.80
73734;BMP280;62039;50.000;9.064;2023-07-30T07:11:50;99879.59;;;21.82
73734;BMP280;62039;50.000;9.064;2023-07-30T07:14:17;99882.31;;;21.87
73734;BMP280;62039;50.000;9.064;2023-07-30T07:16:44;99886.06;;;21.91
73734;BMP280;62039;50.000;9.064;2023-07-30T07:19:11;99882.97;;;21.94
73734;BMP280;62039;50.000;9.064;2023-07-30T07:21:41;99898.19;;;21.99
73734;BMP280;62039;50.000;9.064;2023-07-30T07:24:08;99892.63;;;22.00
73734;BMP280;62039;50.000;9.064;2023-07-30T07:26:35;99896.66;;;22.03
73734;BMP280;62039;50.000;9.064;2023-07-30T07:29:02;99893.72;;;22.04
73734;BMP280;62039;50.000;9.064;2023-07-30T07:31:29;99895.09;;;22.07
73734;BMP280;62039;50.000;9.064;2023-07-30T07:33:57;99887.44;;;22.10
73734;BMP280;62039;50.000;9.064;2023-07-30T07:36:24;99891.22;;;22.14
73734;BMP280;62039;50.000;9.064;2023-07-30T07:38:54;99895.47;;;22.15
73734;BMP280;62039;50.000;9.064;2023-07-30T07:41:21;99897.91;;;22.17
73734;BMP280;62039;50.000;9.064;2023-07-30T07:43:48;99909.66;;;22.21
73734;BMP280;62039;50.000;9.064;2023-07-30T07:46:15;99907.28;;;22.24
73734;BMP280;62039;50.000;9.064;2023-07-30T07:48:43;99901.47;;;22.27
73734;BMP280;62039;50.000;9.064;2023-07-30T07:51:10;99902.59;;;22.31
73734;BMP280;62039;50.000;9.064;2023-07-30T07:53:37;99901.28;;;22.34
73734;BMP280;62039;50.000;9.064;2023-07-30T07:56:07;99909.28;;;22.34
73734;BMP280;62039;50.000;9.064;2023-07-30T07:58:34;99911.69;;;22.36
73734;BMP280;62039;50.000;9.064;2023-07-30T08:01:01;99917.00;;;22.36
73734;BMP280;62039;50.000;9.064;2023-07-30T08:03:28;99918.88;;;22.35
73734;BMP280;62039;50.000;9.064;2023-07-30T08:05:55;99911.94;;;22.34
73734;BMP280;62039;50.000;9.064;2023-07-30T08:08:24;99908.72;;;22.32
73734;BMP280;62039;50.000;9.064;2023-07-30T08:10:52;99911.31;;;22.27
73734;BMP280;62039;50.000;9.064;2023-07-30T08:13:22;99918.72;;;22.25
73734;BMP280;62039;50.000;9.064;2023-07-30T08:15:49;99916.81;;;22.20
73734;BMP280;62039;50.000;9.064;2023-07-30T08:18:16;99925.78;;;22.14
73734;BMP280;62039;50.000;9.064;2023-07-30T08:20:43;99933.63;;;22.04
73734;BMP280;62039;50.000;9.064;2023-07-30T08:23:10;99939.09;;;21.98
73734;BMP280;62039;50.000;9.064;2023-07-30T08:25:37;99930.25;;;21.92
73734;BMP280;62039;50.000;9.064;2023-07-30T08:28:04;99932.81;;;21.87
73734;BMP280;62039;50.000;9.064;2023-07-30T08:30:33;99927.19;;;21.83
73734;BMP280;62039;50.000;9.064;2023-07-30T08:33:00;99928.72;;;21.79
73734;BMP280;62039;50.000;9.064;2023-07-30T08:35:28;99907.16;;;21.76
73734;BMP280;62039;50.000;9.064;2023-07-30T08:37:55;99907.06;;;21.71
73734;BMP280;62039;50.000;9.064;2023-07-30T08:40:22;99905.94;;;21.67
73734;BMP280;62039;50.000;9.064;2023-07-30T08:42:50;99901.59;;;21.61
73734;BMP280;62039;50.000;9.064;2023-07-30T08:45:16;99895.41;;;21.55
73734;BMP280;62039;50.000;9.064;2023-07-30T08:47:47;99904.66;;;21.52
73734;BMP280;62039;50.000;9.064;2023-07-30T08:50:14;99886.81;;;21.48
73734;BMP280;62039;50.000;9.064;2023-07-30T08:52:42;99895.81;;;21.47
73734;BMP280;62039;50.000;9.064;2023-07-30T08:55:10;99901.38;;;21.45
73734;BMP280;62039;50.000;9.064;2023-07-30T08:57:38;99897.59;;;21.41
73734;BMP280;62039;50.000;9.064;2023-07-30T09:00:09;99902.91;;;21.41
73734;BMP280;62039;50.000;9.064;2023-07-30T09:02:39;99909.84;;;21.42
73734;BMP280;62039;50.000;9.064;2023-07-30T09:05:10;99914.56;;;21.40
73734;BMP280;62039;50.000;9.064;2023-07-30T09:07:37;99910.81;;;21.36
73734;BMP280;62039;50.000;9.064;2023-07-30T09:10:05;99916.13;;;21.36
73734;BMP280;62039;50.000;9.064;2023-07-30T09:12:34;99921.44;;;21.36
73734;BMP280;62039;50.000;9.064;2023-07-30T09:15:02;99916.91;;;21.37
73734;BMP280;62039;50.000;9.064;2023-07-30T09:17:29;99912.16;;;21.39
73734;BMP280;62039;50.000;9.064;2023-07-30T09:19:58;99915.97;;;21.43
73734;BMP280;62039;50.000;9.064;2023-07-30T09:22:30;99918.69;;;21.48
73734;BMP280;62039;50.000;9.064;2023-07-30T09:24:57;99909.97;;;21.52
73734;BMP280;62039;50.000;9.064;2023-07-30T09:27:25;99907.38;;;21.58
73734;BMP280;62039;50.000;9.064;2023-07-30T09:29:53;99896.59;;;21.64
73734;BMP280;62039;50.000;9.064;2023-07-30T09:32:26;99894.03;;;21.69
73734;BMP280;62039;50.000;9.064;2023-07-30T09:34:53;99895.94;;;21.74
73734;BMP280;62039;50.000;9.064;2023-07-30T09:37:20;99896.25;;;21.77
73734;BMP280;62039;50.000;9.064;2023-07-30T09:39:50;99884.09;;;21.81
73734;BMP280;62039;50.000;9.064;2023-07-30T09:42:17;99888.66;;;21.86
73734;BMP280;62039;50.000;9.064;2023-07-30T09:44:46;99900.44;;;21.90
73734;BMP280;62039;50.000;9.064;2023-07-30T09:47:13;99898.34;;;21.92
73734;BMP280;62039;50.000;9.064;2023-07-30T09:49:40;99893.38;;;21.96
73734;BMP280;62039;50.000;9.064;2023-07-30T09:52:07;99892.88;;;21.99
73734;BMP280;62039;50.000;9.064;2023-07-30T09:54:36;99899.31;;;22.03
73734;BMP280;62039;50.000;9.064;2023-07-30T09:57:06;99895.34;;;22.05
73734;BMP280;62039;50.000;9.064;2023-07-30T09:59:33;99899.13;;;22.09
73734;BMP280;62039;50.000;9.064;2023-07-30T10:02:00;99884.28;;;22.13
73734;BMP280;62039;50.000;9.064;2023-07-30T10:04:29;99896.59;;;22.19
73734;BMP280;62039;50.000;9.064;2023-07-30T10:07:02;99891.31;;;22.24
73734;BMP280;62039;50.000;9.064;2023-07-30T10:09:33;99895.34;;;22.27
73734;BMP280;62039;50.000;9.064;2023-07-30T10:12:01;99901.47;;;22.27
73734;BMP280;62039;50.000;9.064;2023-07-30T10:14:31;99916.88;;;22.25
73734;BMP280;62039;50.000;9.064;2023-07-30T10:17:00;99936.47;;;22.19
73734;BMP280;62039;50.000;9.064;2023-07-30T10:19:28;99951.28;;;22.10
73734;BMP280;62039;50.000;9.064;2023-07-30T10:22:18;99944.41;;;21.98
73734;BMP280;62039;50.000;9.064;2023-07-30T10:24:55;99964.66;;;21.82
73734;BMP280;62039;50.000;9.064;2023-07-30T10:27:24;99971.91;;;21.70
73734;BMP280;62039;50.000;9.064;2023-07-30T10:30:08;99986.31;;;21.57
73734;BMP280;62039;50.000;9.064;2023-07-30T10:32:39;99993.88;;;21.48
73734;BMP280;62039;50.000;9.064;2023-07-30T10:35:06;99983.66;;;21.40
73734;BMP280;62039;50.000;9.064;2023-07-30T10:37:33;100001.56;;;21.33
73734;BMP280;62039;50.000;9.064;2023-07-30T10:40:00;100003.53;;;21.26
73734;BMP280;62039;50.000;9.064;2023-07-30T10:42:41;100018.25;;;21.17
73734;BMP280;62039;50.000;9.064;2023-07-30T10:45:11;100022.88;;;21.10
73734;BMP280;62039;50.000;9.064;2023-07-30T10:47:40;100027.53;;;21.03
73734;BMP280;62039;50.000;9.064;2023-07-30T10:50:08;100030.09;;;20.98
73734;BMP280;62039;50.000;9.064;2023-07-30T10:52:35;100034.41;;;20.87
73734;BMP280;62039;50.000;9.064;2023-07-30T10:55:03;100034.31;;;20.82
73734;BMP280;62039;50.000;9.064;2023-07-30T10:57:30;100033.63;;;20.75
73734;BMP280;62039;50.000;9.064;2023-07-30T10:59:58;100042.16;;;20.65
73734;BMP280;62039;50.000;9.064;2023-07-30T11:02:28;100044.13;;;20.58
73734;BMP280;62039;50.000;9.064;2023-07-30T11:04:55;100037.91;;;20.53
73734;BMP280;62039;50.000;9.064;2023-07-30T11:07:22;100038.13;;;20.51
73734;BMP280;62039;50.000;9.064;2023-07-30T11:09:58;100042.06;;;20.49
73734;BMP280;62039;50.000;9.064;2023-07-30T11:12:25;100052.91;;;20.47
73734;BMP280;62039;50.000;9.064;2023-07-30T11:15:00;100056.59;;;20.46
73734;BMP280;62039;50.000;9.064;2023-07-30T11:17:29;100060.75;;;20.42
73734;BMP280;62039;50.000;9.064;2023-07-30T11:19:57;100054.06;;;20.40
73734;BMP280;62039;50.000;9.064;2023-07-30T11:22:30;100059.59;;;20.38
73734;BMP280;62039;50.000;9.064;2023-07-30T11:24:58;100062.00;;;20.40
73734;BMP280;62039;50.000;9.064;2023-07-30T11:27:24;100067.91;;;20.42
73734;BMP280;62039;50.000;9.064;2023-07-30T11:29:55;100055.19;;;20.44
73734;BMP280;62039;50.000;9.064;2023-07-30T11:32:22;100057.19;;;20.48
73734;BMP280;62039;50.000;9.064;2023-07-30T11:34:52;100055.22;;;20.55
73734;BMP280;62039;50.000;9.064;2023-07-30T11:37:19;100058.53;;;20.62
73734;BMP280;62039;50.000;9.064;2023-07-30T11:39:47;100054.69;;;20.70
73734;BMP280;62039;50.000;9.064;2023-07-30T11:42:15;100058.88;;;20.77
73734;BMP280;62039;50.000;9.064;2023-07-30T11:44:42;100054.72;;;20.82
73734;BMP280;62039;50.000;9.064;2023-07-30T11:47:09;100054.25;;;20.85
73734;BMP280;62039;50.000;9.064;2023-07-30T11:49:36;100065.44;;;20.87
73734;BMP280;62039;50.000;9.064;2023-07-30T11:52:09;100062.56;;;20.88
73734;BMP280;62039;50.000;9.064;2023-07-30T11:54:37;100059.66;;;20.90
73734;BMP280;62039;50.000;9.064;2023-07-30T11:57:04;100064.06;;;20.96
73734;BMP280;62039;50.000;9.064;2023-07-30T11:59:32;100068.41;;;21.02
73734;BMP280;62039;50.000;9.064;2023-07-30T12:01:59;100060.56;;;21.07
73734;BMP280;62039;50.000;9.064;2023-07-30T12:04:30;100065.38;;;21.10
73734;BMP280;62039;50.000;9.064;2023-07-30T12:06:57;100068.84;;;21.10
73734;BMP280;62039;50.000;9.064;2023-07-30T12:09:26;100082.91;;;21.11
73734;BMP280;62039;50.000;9.064;2023-07-30T12:11:55;100082.91;;;21.11
73734;BMP280;62039;50.000;9.064;2023-07-30T12:14:24;100084.53;;;21.12
73734;BMP280;62039;50.000;9.064;2023-07-30T12:16:51;100081.06;;;21.11
73734;BMP280;62039;50.000;9.064;2023-07-30T12:19:18;100081.31;;;21.10
73734;BMP280;62039;50.000;9.064;2023-07-30T12:21:45;100094.59;;;21.10
73734;BMP280;62039;50.000;9.064;2023-07-30T12:24:12;100094.34;;;21.11
73734;BMP280;62039;50.000;9.064;2023-07-30T12:26:42;100098.84;;;21.11
73734;BMP280;62039;50.000;9.064;2023-07-30T12:29:09;100101.28;;;21.12
73734;BMP280;62039;50.000;9.064;2023-07-30T12:31:36;100102.66;;;21.15
73734;BMP280;62039;50.000;9.064;2023-07-30T12:34:04;100104.75;;;21.13
73734;BMP280;62039;50.000;9.064;2023-07-30T12:36:31;100119.06;;;21.12
73734;BMP280;62039;50.000;9.064;2023-07-30T12:38:57;100117.44;;;21.11
73734;BMP280;62039;50.000;9.064;2023-07-30T12:41:24;100120.09;;;21.11
73734;BMP280;62039;50.000;9.064;2023-07-30T12:43:54;100116.50;;;21.17
73734;BMP280;62039;50.000;9.064;2023-07-30T12:46:22;100119.75;;;21.19
73734;BMP280;62039;50.000;9.064;2023-07-30T12:48:49;100121.59;;;21.19
73734;BMP280;62039;50.000;9.064;2023-07-30T12:51:16;100128.19;;;21.16
73734;BMP280;62039;50.000;9.064;2023-07-30T12:53:43;100120.91;;;21.11
73734;BMP280;62039;50.000;9.064;2023-07-30T12:56:10;100114.56;;;21.12
73734;BMP280;62039;50.000;9.064;2023-07-30T12:58:37;100112.72;;;21.13
73734;BMP280;62039;50.000;9.064;2023-07-30T13:01:07;100113.03;;;21.16
73734;BMP280;62039;50.000;9.064;2023-07-30T13:03:34;100119.28;;;21.22
73734;BMP280;62039;50.000;9.064;2023-07-30T13:06:01;100121.00;;;21.28
73734;BMP280;62039;50.000;9.064;2023-07-30T13:08:28;100121.09;;;21.33
73734;BMP280;62039;50.000;9.064;2023-07-30T13:10:55;100131.50;;;21.35
73734;BMP280;62039;50.000;9.064;2023-07-30T13:13:22;100127.81;;;21.36
73734;BMP280;62039;50.000;9.064;2023-07-30T13:15:49;100127.56;;;21.37
73734;BMP280;62039;50.000;9.064;2023-07-30T13:18:19;100137.16;;;21.38
73734;BMP280;62039;50.000;9.064;2023-07-30T13:20:45;100140.84;;;21.37
73734;BMP280;62039;50.000;9.064;2023-07-30T13:23:15;100142.47;;;21.38
73734;BMP280;62039;50.000;9.064;2023-07-30T13:25:42;100138.19;;;21.37
73734;BMP280;62039;50.000;9.064;2023-07-30T13:28:09;100151.97;;;21.34
73734;BMP280;62039;50.000;9.064;2023-07-30T13:30:36;100137.47;;;21.30
73734;BMP280;62039;50.000;9.064;2023-07-30T13:33:03;100128.97;;;21.28
73734;BMP280;62039;50.000;9.064;2023-07-30T13:35:33;100128.25;;;21.33
73734;BMP280;62039;50.000;9.064;2023-07-30T13:38:00;100116.94;;;21.37
73734;BMP280;62039;50.000;9.064;2023-07-30T13:40:27;100121.56;;;21.42
73734;BMP280;62039;50.000;9.064;2023-07-30T13:42:54;100127.53;;;21.49
73734;BMP280;62039;50.000;9.064;2023-07-30T13:45:21;100123.94;;;21.55
73734;BMP280;62039;50.000;9.064;2023-07-30T13:47:48;100124.59;;;21.62
73734;BMP280;62039;50.000;9.064;2023-07-30T13:50:15;100126.06;;;21.70
73734;BMP280;62039;50.000;9.064;2023-07-30T13:52:45;100128.31;;;21.78
73734;BMP280;62039;50.000;9.064;2023-07-30T13:55:11;100135.00;;;21.80
73734;BMP280;62039;50.000;9.064;2023-07-30T13:57:38;100130.00;;;21.84
73734;BMP280;62039;50.000;9.064;2023-07-30T14:00:07;100130.66;;;21.91
73734;BMP280;62039;50.000;9.064;2023-07-30T14:02:34;100137.47;;;21.99
73734;BMP280;62039;50.000;9.064;2023-07-30T14:05:01;100136.06;;;22.08
73734;BMP280;62039;50.000;9.064;2023-07-30T14:07:28;100135.41;;;22.17
73734;BMP280;62039;50.000;9.064;2023-07-30T14:09:58;100132.34;;;22.25